createdAt,value
2022-08-14T00:02:03.293Z,99.90
2022-08-14T00:04:41.959Z,99.90
2022-08-14T00:07:14.221Z,99.90
2022-08-14T00:09:56.317Z,99.90
2022-08-14T00:12:33.447Z,99.90
2022-08-14T00:15:43.511Z,99.90
2022-08-14T00:18:14.496Z,99.90
2022-08-14T00:20:43.534Z,99.90
2022-08-14T00:23:16.431Z,99.90
2022-08-14T00:25:53.667Z,99.90
2022-08-14T00:28:35.631Z,99.90
2022-08-14T00:31:05.388Z,99.90
2022-08-14T00:33:50.952Z,99.90
2022-08-14T00:36:36.194Z,99.90
2022-08-14T00:39:09.244Z,99.90
2022-08-14T00:41:36.874Z,99.90
2022-08-14T00:44:07.023Z,99.90
2022-08-14T00:46:36.512Z,99.90
2022-08-14T00:49:05.844Z,99.90
2022-08-14T00:51:36.806Z,99.90
2022-08-14T00:54:11.164Z,99.90
2022-08-14T00:56:49.422Z,99.90
2022-08-14T00:59:16.333Z,99.90
2022-08-14T01:01:44.463Z,99.90
2022-08-14T01:04:52.346Z,99.90
2022-08-14T01:07:00.921Z,99.90
2022-08-14T01:09:37.300Z,99.90
2022-08-14T01:12:06.514Z,99.90
2022-08-14T01:14:35.765Z,99.90
2022-08-14T01:17:03.328Z,99.90
2022-08-14T01:19:50.000Z,99.90
2022-08-14T01:22:20.789Z,99.90
2022-08-14T01:24:53.993Z,99.90
2022-08-14T01:27:24.414Z,99.90
2022-08-14T01:30:00.744Z,99.90
2022-08-14T01:32:31.566Z,99.90
2022-08-14T01:35:18.633Z,99.90
2022-08-14T01:37:56.275Z,99.90
2022-08-14T01:40:36.167Z,99.90
2022-08-14T01:43:15.841Z,99.90
2022-08-14T01:45:49.024Z,99.90
2022-08-14T01:48:25.748Z,99.90
2022-08-14T01:50:52.769Z,99.90
2022-08-14T01:53:20.720Z,99.90
2022-08-14T01:55:51.638Z,99.90
2022-08-14T01:58:24.654Z,99.90
2022-08-14T02:00:57.051Z,99.90
2022-08-14T02:03:30.965Z,99.90
2022-08-14T02:06:03.988Z,99.90
2022-08-14T02:08:52.931Z,99.90
2022-08-14T02:11:22.718Z,99.90
2022-08-14T02:14:07.091Z,99.90
2022-08-14T02:16:44.122Z,99.90
2022-08-14T02:19:16.352Z,99.90
2022-08-14T02:21:48.788Z,99.90
2022-08-14T02:24:39.112Z,99.90
2022-08-14T02:28:22.110Z,99.90
2022-08-14T02:30:00.796Z,99.90
2022-08-14T02:32:37.276Z,99.90
2022-08-14T02:35:17.654Z,99.90
2022-08-14T02:37:49.872Z,99.90
2022-08-14T02:40:19.054Z,99.90
2022-08-14T02:42:54.262Z,99.90
2022-08-14T02:45:22.392Z,99.90
2022-08-14T02:47:53.718Z,99.90
2022-08-14T02:50:21.332Z,99.90
2022-08-14T02:52:57.636Z,99.90
2022-08-14T02:55:31.091Z,99.90
2022-08-14T02:58:02.902Z,99.90
2022-08-14T03:00:33.114Z,99.90
2022-08-14T03:03:01.656Z,99.90
2022-08-14T03:05:32.833Z,99.90
2022-08-14T03:08:08.443Z,99.90
2022-08-14T03:10:41.669Z,99.90
2022-08-14T03:13:19.559Z,99.90
2022-08-14T03:15:56.054Z,99.90
2022-08-14T03:18:30.793Z,99.90
2022-08-14T03:21:07.927Z,99.90
2022-08-14T03:23:38.041Z,99.90
2022-08-14T03:26:12.636Z,99.90
2022-08-14T03:28:47.209Z,99.90
2022-08-14T03:31:15.164Z,99.90
2022-08-14T03:33:43.381Z,99.90
2022-08-14T03:37:38.259Z,99.90
2022-08-14T03:39:11.719Z,99.90
2022-08-14T03:41:48.735Z,99.90
2022-08-14T03:45:19.168Z,99.90
2022-08-14T03:47:03.309Z,99.90
2022-08-14T03:49:30.396Z,99.90
2022-08-14T03:52:07.845Z,99.90
2022-08-14T03:54:52.547Z,99.90
2022-08-14T03:57:22.777Z,99.90
2022-08-14T03:59:51.068Z,99.90
2022-08-14T04:02:33.205Z,99.90
2022-08-14T04:05:12.673Z,99.90
2022-08-14T04:07:41.584Z,99.90
2022-08-14T04:10:31.924Z,99.90
2022-08-14T04:13:04.157Z,99.90
2022-08-14T04:15:52.753Z,99.90
2022-08-14T04:18:21.119Z,99.90
2022-08-14T04:20:51.606Z,99.90
2022-08-14T04:23:31.864Z,99.90
2022-08-14T04:26:02.654Z,99.90
2022-08-14T04:29:07.768Z,99.90
2022-08-14T04:32:58.727Z,99.90
2022-08-14T04:34:07.840Z,99.90
2022-08-14T04:36:55.043Z,99.90
2022-08-14T04:39:46.453Z,99.90
2022-08-14T04:42:32.239Z,99.90
2022-08-14T04:45:01.103Z,99.90
2022-08-14T04:47:46.750Z,99.90
2022-08-14T04:50:25.868Z,99.90
2022-08-14T04:53:02.042Z,99.90
2022-08-14T04:55:29.896Z,99.90
2022-08-14T04:57:57.881Z,99.90
2022-08-14T05:00:27.414Z,99.90
2022-08-14T05:02:57.215Z,99.90
2022-08-14T05:05:25.121Z,99.90
2022-08-14T05:08:01.239Z,99.90
2022-08-14T05:10:32.391Z,99.90
2022-08-14T05:13:11.687Z,99.90
2022-08-14T05:15:48.032Z,99.90
2022-08-14T05:18:36.988Z,99.90
2022-08-14T05:21:57.478Z,99.90
2022-08-14T05:23:54.800Z,99.90
2022-08-14T05:26:22.461Z,99.90
2022-08-14T05:28:49.417Z,99.90
2022-08-14T05:31:20.772Z,99.90
2022-08-14T05:33:54.942Z,99.90
2022-08-14T05:36:26.984Z,99.90
2022-08-14T05:38:55.307Z,99.90
2022-08-14T05:41:22.424Z,99.90
2022-08-14T05:43:51.220Z,99.90
2022-08-14T05:46:23.027Z,99.90
2022-08-14T05:48:57.610Z,99.90
2022-08-14T05:51:26.772Z,99.90
2022-08-14T05:54:01.738Z,99.90
2022-08-14T05:56:40.051Z,99.90
2022-08-14T05:59:07.241Z,99.90
2022-08-14T06:01:35.290Z,99.90
2022-08-14T06:04:04.473Z,99.90
2022-08-14T06:06:36.557Z,99.90
2022-08-14T06:09:05.971Z,99.90
2022-08-14T06:11:37.424Z,99.90
2022-08-14T06:14:12.291Z,99.90
2022-08-14T06:16:47.797Z,99.90
2022-08-14T06:19:18.228Z,99.90
2022-08-14T06:21:45.449Z,99.90
2022-08-14T06:24:18.794Z,99.90
2022-08-14T06:26:54.247Z,99.90
2022-08-14T06:29:32.209Z,99.90
2022-08-14T06:32:37.742Z,99.90
2022-08-14T06:35:02.142Z,99.90
2022-08-14T06:37:43.973Z,99.90
2022-08-14T06:40:25.643Z,99.90
2022-08-14T06:42:55.176Z,99.90
2022-08-14T06:45:26.289Z,99.90
2022-08-14T06:47:54.360Z,99.90
2022-08-14T06:50:27.700Z,99.90
2022-08-14T06:52:56.430Z,99.90
2022-08-14T06:55:27.830Z,99.90
2022-08-14T06:57:55.437Z,99.90
2022-08-14T07:00:30.809Z,99.90
2022-08-14T07:03:19.230Z,99.90
2022-08-14T07:05:57.735Z,99.90
2022-08-14T07:08:31.770Z,99.90
2022-08-14T07:11:01.394Z,99.90
2022-08-14T07:13:30.589Z,99.90
2022-08-14T07:15:59.052Z,99.90
2022-08-14T07:18:32.968Z,99.90
2022-08-14T07:21:01.265Z,99.90
2022-08-14T07:23:30.294Z,99.90
2022-08-14T07:26:00.307Z,99.90
2022-08-14T07:28:35.794Z,99.90
2022-08-14T07:31:10.776Z,99.90
2022-08-14T07:33:50.098Z,99.90
2022-08-14T07:36:26.577Z,99.90
2022-08-14T07:38:57.562Z,99.90
2022-08-14T07:41:24.693Z,99.90
2022-08-14T07:44:00.050Z,99.90
2022-08-14T07:46:31.300Z,99.90
2022-08-14T07:48:59.275Z,99.90
2022-08-14T07:51:33.358Z,99.90
2022-08-14T07:54:02.039Z,99.90
2022-08-14T07:56:47.967Z,99.90
2022-08-14T07:59:18.634Z,99.90
2022-08-14T08:01:48.001Z,99.90
2022-08-14T08:04:24.085Z,99.90
2022-08-14T08:06:53.012Z,99.90
2022-08-14T08:09:24.907Z,99.90
2022-08-14T08:12:04.942Z,99.90
2022-08-14T08:14:56.939Z,99.90
2022-08-14T08:17:24.058Z,99.90
2022-08-14T08:19:51.457Z,99.90
2022-08-14T08:22:21.404Z,99.90
2022-08-14T08:24:50.224Z,99.90
2022-08-14T08:27:22.057Z,99.90
2022-08-14T08:30:16.453Z,99.90
2022-08-14T08:32:46.713Z,99.90
2022-08-14T08:35:21.984Z,99.90
2022-08-14T08:38:01.443Z,99.90
2022-08-14T08:40:54.624Z,99.90
2022-08-14T08:43:29.309Z,99.90
2022-08-14T08:46:18.533Z,99.90
2022-08-14T08:51:33.451Z,99.90
2022-08-14T08:54:19.768Z,99.90
2022-08-14T08:56:52.500Z,99.90
2022-08-14T08:59:27.394Z,99.90
2022-08-14T09:02:10.297Z,99.90
2022-08-14T09:04:45.475Z,99.90
2022-08-14T09:07:30.536Z,99.90
2022-08-14T09:10:00.043Z,99.90
2022-08-14T09:12:33.482Z,99.90
2022-08-14T09:15:11.857Z,99.90
2022-08-14T09:17:42.330Z,99.90
2022-08-14T09:20:11.835Z,99.90
2022-08-14T09:22:48.220Z,99.90
2022-08-14T09:25:17.260Z,99.90
2022-08-14T09:27:46.961Z,99.90
2022-08-14T09:30:32.374Z,99.90
2022-08-14T09:33:11.021Z,99.90
2022-08-14T09:36:16.863Z,99.90
2022-08-14T09:39:08.109Z,99.90
2022-08-14T09:42:21.253Z,99.90
2022-08-14T09:45:08.492Z,99.90
2022-08-14T09:47:56.759Z,99.90
2022-08-14T09:50:30.068Z,99.90
2022-08-14T09:53:03.736Z,99.90
2022-08-14T09:55:41.654Z,99.90
2022-08-14T09:58:14.931Z,99.90
2022-08-14T10:01:00.830Z,99.90
2022-08-14T10:03:35.610Z,99.90
2022-08-14T10:06:13.833Z,99.90
2022-08-14T10:08:51.152Z,99.90
2022-08-14T10:11:23.620Z,99.90
2022-08-14T10:13:55.934Z,99.90
2022-08-14T10:16:32.948Z,99.90
2022-08-14T10:19:12.117Z,99.90
2022-08-14T10:23:11.982Z,99.90
2022-08-14T10:24:42.151Z,99.90
2022-08-14T10:27:26.679Z,99.90
2022-08-14T10:29:58.218Z,99.90
2022-08-14T10:32:36.259Z,99.90
2022-08-14T10:35:14.766Z,99.90
2022-08-14T10:37:50.421Z,99.90
2022-08-14T10:40:43.810Z,99.90
2022-08-14T10:43:22.917Z,99.90
2022-08-14T10:46:03.709Z,99.90
2022-08-14T10:48:57.431Z,99.90
2022-08-14T10:51:30.186Z,99.90
2022-08-14T10:54:35.070Z,99.90
2022-08-14T10:56:59.164Z,99.90
2022-08-14T10:59:30.769Z,99.90
2022-08-14T11:02:03.429Z,99.90
2022-08-14T11:04:31.265Z,99.90
2022-08-14T11:06:59.389Z,99.90
2022-08-14T11:09:31.650Z,99.90
2022-08-14T11:12:35.131Z,99.90
2022-08-14T11:15:02.144Z,99.90
2022-08-14T11:17:32.678Z,99.90
2022-08-14T11:20:02.978Z,99.90
2022-08-14T11:22:55.624Z,99.90
2022-08-14T11:25:23.910Z,99.90
2022-08-14T11:27:56.407Z,99.90
2022-08-14T11:30:48.963Z,99.90
2022-08-14T11:33:13.312Z,99.90
2022-08-14T11:35:47.356Z,99.90
2022-08-14T11:38:17.042Z,99.90
2022-08-14T11:40:47.125Z,99.90
2022-08-14T11:43:16.479Z,99.90
2022-08-14T11:45:48.067Z,99.90
2022-08-14T11:49:03.131Z,99.80
2022-08-14T11:51:26.163Z,99.90
2022-08-14T11:54:01.619Z,99.60
2022-08-14T11:56:36.074Z,98.90
2022-08-14T11:59:03.719Z,99.00
2022-08-14T12:01:31.344Z,96.90
2022-08-14T12:04:32.247Z,96.70
2022-08-14T12:06:58.658Z,97.20
2022-08-14T12:09:36.791Z,94.80
2022-08-14T12:12:35.050Z,95.20
2022-08-14T12:15:07.127Z,94.30
2022-08-14T12:17:51.871Z,93.50
2022-08-14T12:20:29.818Z,94.00
2022-08-14T12:23:00.706Z,92.80
2022-08-14T12:25:28.401Z,91.30
2022-08-14T12:28:01.330Z,91.80
2022-08-14T12:30:43.788Z,91.50
2022-08-14T12:33:33.034Z,91.10
2022-08-14T12:36:08.147Z,90.20
2022-08-14T12:38:45.769Z,91.20
2022-08-14T12:41:20.285Z,91.00
2022-08-14T12:43:55.467Z,91.00
2022-08-14T12:46:27.255Z,90.50
2022-08-14T12:49:02.389Z,91.40
2022-08-14T12:51:30.880Z,92.10
2022-08-14T12:54:00.152Z,91.90
2022-08-14T12:56:33.944Z,90.90
2022-08-14T12:59:02.370Z,91.30
2022-08-14T13:02:00.126Z,90.90
2022-08-14T13:04:21.635Z,90.00
2022-08-14T13:06:51.504Z,95.40
2022-08-14T13:09:20.018Z,98.30
2022-08-14T13:11:59.212Z,95.80
2022-08-14T13:14:38.986Z,95.50
2022-08-14T13:17:07.613Z,90.10
2022-08-14T13:19:40.671Z,89.00
2022-08-14T13:22:10.177Z,90.40
2022-08-14T13:24:47.834Z,90.70
2022-08-14T13:27:14.997Z,90.50
2022-08-14T13:29:47.408Z,91.20
2022-08-14T13:32:15.256Z,90.90
2022-08-14T13:39:56.807Z,95.10
2022-08-14T13:42:30.747Z,98.80
2022-08-14T13:45:01.201Z,99.90
2022-08-14T14:18:54.200Z,99.90
2022-08-14T14:21:28.663Z,99.90
2022-08-14T14:23:56.489Z,99.90
2022-08-14T14:26:24.891Z,99.90
2022-08-14T14:28:56.543Z,99.90
2022-08-14T14:31:30.391Z,99.90
2022-08-14T14:34:07.280Z,99.90
2022-08-14T14:36:43.967Z,99.90
2022-08-14T14:39:20.107Z,99.90
2022-08-14T14:41:53.200Z,99.90
2022-08-14T14:44:26.990Z,99.90
2022-08-14T14:46:54.340Z,99.90
2022-08-14T14:49:31.627Z,99.90
2022-08-14T14:52:15.290Z,99.90
2022-08-14T14:54:50.747Z,99.90
2022-08-14T14:57:19.291Z,99.90
2022-08-14T14:59:46.432Z,99.90
2022-08-14T15:02:40.846Z,99.90
2022-08-14T15:05:10.438Z,99.90
2022-08-14T15:07:40.038Z,99.90
2022-08-14T15:10:27.105Z,99.90
2022-08-14T15:12:57.752Z,99.90
2022-08-14T15:15:27.480Z,99.90
2022-08-14T15:17:55.195Z,99.90
2022-08-14T15:20:30.445Z,99.90
2022-08-14T15:23:00.951Z,99.90
2022-08-14T15:25:35.529Z,99.90
2022-08-14T15:28:02.600Z,99.90
2022-08-14T15:30:32.824Z,99.90
2022-08-14T15:33:00.069Z,99.90
2022-08-14T15:35:28.157Z,99.90
2022-08-14T15:38:10.725Z,99.90
2022-08-14T15:40:41.877Z,99.90
2022-08-14T15:43:13.038Z,99.90
2022-08-14T15:45:41.247Z,99.90
2022-08-14T15:48:14.015Z,99.90
2022-08-14T15:50:50.712Z,99.90
2022-08-14T15:53:20.617Z,99.90
2022-08-14T15:55:48.613Z,99.90
2022-08-14T15:58:20.210Z,99.90
2022-08-14T16:01:07.301Z,99.90
2022-08-14T16:03:37.226Z,99.90
2022-08-14T16:06:17.649Z,99.90
2022-08-14T16:08:50.074Z,99.90
2022-08-14T16:11:21.816Z,99.90
2022-08-14T16:13:50.429Z,99.90
2022-08-14T16:16:47.628Z,99.90
2022-08-14T16:19:10.097Z,99.90
2022-08-14T16:21:40.613Z,99.90
2022-08-14T16:24:27.969Z,99.90
2022-08-14T16:27:01.010Z,99.90
2022-08-14T16:29:30.886Z,99.90
2022-08-14T16:34:53.409Z,99.90
2022-08-14T16:37:22.146Z,99.90
2022-08-14T16:39:50.459Z,99.90
2022-08-14T16:40:24.512Z,99.90
2022-08-14T16:42:38.729Z,99.90
2022-08-14T16:45:11.576Z,99.90
2022-08-14T16:47:40.676Z,99.90
2022-08-14T16:50:11.842Z,99.90
2022-08-14T16:52:54.620Z,99.90
2022-08-14T16:55:29.983Z,99.90
2022-08-14T16:57:58.880Z,99.90
2022-08-14T17:00:45.213Z,99.90
2022-08-14T17:03:13.415Z,99.90
2022-08-14T17:05:47.035Z,99.90
2022-08-14T17:08:41.480Z,99.90
2022-08-14T17:11:12.574Z,99.90
2022-08-14T17:13:59.666Z,99.90
2022-08-14T17:16:39.020Z,99.90
2022-08-14T17:19:10.005Z,99.90
2022-08-14T17:21:42.836Z,99.90
2022-08-14T17:24:56.205Z,99.90
2022-08-14T17:27:05.226Z,99.90
2022-08-14T17:29:56.182Z,99.90
2022-08-14T17:32:29.740Z,99.90
2022-08-14T17:35:16.461Z,99.90
2022-08-14T17:40:16.252Z,99.90
2022-08-14T17:42:49.086Z,99.90
2022-08-14T17:45:27.054Z,99.90
2022-08-14T17:47:59.020Z,99.90
2022-08-14T17:51:00.342Z,99.90
2022-08-14T17:53:30.464Z,99.90
2022-08-14T18:09:20.098Z,99.90
2022-08-14T18:11:59.112Z,99.90
2022-08-14T18:14:32.847Z,99.90
2022-08-14T18:17:15.884Z,99.90
2022-08-14T18:19:45.048Z,99.90
2022-08-14T18:22:24.022Z,99.90
2022-08-14T18:25:02.429Z,99.90
2022-08-14T18:27:39.113Z,99.90
2022-08-14T18:30:32.083Z,99.90
2022-08-14T18:32:59.534Z,99.90
2022-08-14T18:35:59.908Z,99.90
2022-08-14T19:13:48.249Z,99.90
2022-08-14T19:16:26.088Z,99.90
2022-08-14T19:19:06.868Z,99.90
2022-08-14T19:21:40.032Z,99.90
2022-08-14T19:24:27.562Z,99.90
2022-08-14T19:27:24.171Z,99.90
2022-08-14T19:30:20.499Z,99.90
2022-08-14T19:32:58.919Z,99.90
2022-08-14T19:35:49.569Z,99.90
2022-08-14T19:38:44.278Z,99.90
2022-08-14T19:41:16.410Z,99.90
2022-08-14T19:43:56.110Z,99.90
2022-08-14T19:46:38.614Z,99.90
2022-08-14T19:49:23.028Z,99.90
2022-08-14T19:52:17.642Z,99.90
2022-08-14T19:54:50.579Z,99.90
2022-08-14T19:57:23.928Z,99.90
2022-08-14T20:00:28.352Z,99.90
2022-08-14T20:03:11.238Z,99.90
2022-08-14T20:05:46.488Z,99.90
2022-08-14T20:11:00.943Z,99.90
2022-08-14T20:11:20.888Z,99.90
2022-08-14T20:14:09.467Z,99.90
2022-08-14T20:16:41.043Z,99.90
2022-08-14T20:19:31.363Z,99.90
2022-08-14T20:22:35.701Z,99.90
2022-08-14T20:24:50.057Z,99.90
2022-08-14T20:27:33.359Z,99.90
2022-08-14T20:30:32.818Z,99.90
2022-08-14T20:33:07.792Z,99.90
2022-08-14T20:35:41.824Z,99.90
2022-08-14T20:38:30.229Z,99.90
2022-08-14T20:41:01.888Z,99.90
2022-08-14T20:43:54.286Z,99.90
2022-08-14T20:46:38.758Z,99.90
2022-08-14T20:49:16.200Z,99.90
2022-08-14T20:51:59.000Z,99.90
2022-08-14T20:54:34.654Z,99.90
2022-08-14T20:57:07.718Z,99.90
2022-08-14T20:59:44.549Z,99.90
2022-08-14T21:02:34.442Z,99.90
2022-08-14T21:05:17.183Z,99.90
2022-08-14T21:14:08.755Z,99.90
2022-08-14T21:15:56.728Z,99.90
2022-08-14T21:18:24.488Z,99.90
2022-08-14T21:20:56.272Z,99.90
2022-08-14T21:23:23.276Z,99.90
2022-08-14T21:25:50.616Z,99.90
2022-08-14T21:28:30.206Z,99.90
2022-08-14T21:31:01.729Z,99.90
2022-08-14T21:33:29.163Z,99.90
2022-08-14T21:35:58.130Z,99.90
2022-08-14T21:38:31.181Z,99.90
2022-08-14T21:41:42.371Z,99.90
2022-08-14T21:44:17.666Z,99.90
2022-08-14T21:46:53.664Z,99.90
2022-08-14T21:49:38.277Z,99.90
2022-08-14T21:52:11.550Z,99.90
2022-08-14T21:55:09.041Z,99.90
2022-08-14T21:57:53.649Z,99.90
2022-08-14T22:00:35.607Z,99.90
2022-08-14T22:03:11.166Z,99.90
2022-08-14T22:05:40.140Z,99.90
2022-08-14T22:08:12.232Z,99.90
2022-08-14T22:10:44.798Z,99.90
2022-08-14T22:13:18.518Z,99.90
2022-08-14T22:15:50.047Z,99.90
2022-08-14T22:18:20.106Z,99.90
2022-08-14T22:20:53.852Z,99.90
2022-08-14T22:23:23.172Z,99.90
2022-08-14T22:25:52.360Z,99.90
2022-08-14T22:28:25.342Z,99.90
2022-08-14T22:30:54.989Z,99.90
2022-08-14T22:33:30.804Z,99.90
2022-08-14T22:36:01.115Z,99.90
2022-08-14T22:38:37.191Z,99.90
2022-08-14T22:41:25.275Z,99.90
2022-08-14T22:43:59.280Z,99.90
2022-08-14T22:46:27.077Z,99.90
2022-08-14T22:48:54.772Z,99.90
2022-08-14T22:51:27.680Z,99.90
2022-08-14T22:53:56.888Z,99.90
2022-08-14T22:56:29.391Z,99.90
2022-08-14T22:59:00.453Z,99.90
2022-08-14T23:01:56.077Z,99.90
2022-08-14T23:04:34.453Z,99.90
2022-08-14T23:07:22.967Z,99.90
2022-08-14T23:10:32.847Z,99.90
2022-08-14T23:12:54.257Z,99.90
2022-08-14T23:15:24.134Z,99.90
2022-08-14T23:17:55.687Z,99.90
2022-08-14T23:20:23.246Z,99.90
2022-08-14T23:22:56.940Z,99.90
2022-08-14T23:25:57.462Z,99.90
2022-08-14T23:28:34.445Z,99.90
2022-08-14T23:31:08.529Z,99.90
2022-08-14T23:33:45.721Z,99.90
2022-08-14T23:36:31.679Z,99.90
2022-08-14T23:39:10.548Z,99.90
2022-08-14T23:41:47.032Z,99.90
2022-08-14T23:44:24.247Z,99.90
2022-08-14T23:46:56.684Z,99.90
2022-08-14T23:49:28.103Z,99.90
2022-08-14T23:52:55.892Z,99.90
2022-08-14T23:55:02.183Z,99.90
2022-08-14T23:57:30.675Z,99.90
2022-08-14T23:59:57.939Z,99.90
